sensor_id;sensor_type;location;lat;lon;timestamp;P1;durP1;ratioP1;P2;durP2;ratioP2
30247;SDS011;17063;50.892;4.702;2023-04-12T00:01:06;1.10;;;0.60;;
30247;SDS011;17063;50.892;4.702;2023-04-12T00:03:33;3.70;;;1.00;;
30247;SDS011;17063;50.892;4.702;2023-04-12T00:06:01;3.40;;;1.30;;
30247;SDS011;17063;50.892;4.702;2023-04-12T00:08:28;3.60;;;1.17;;
30247;SDS011;17063;50.892;4.702;2023-04-12T00:10:59;1.53;;;0.70;;
30247;SDS011;17063;50.892;4.702;2023-04-12T00:13:27;4.67;;;0.90;;
30247;SDS011;17063;50.892;4.702;2023-04-12T00:15:55;1.90;;;0.90;;
30247;SDS011;17063;50.892;4.702;2023-04-12T00:18:22;1.30;;;0.93;;
30247;SDS011;17063;50.892;4.702;2023-04-12T00:20:53;0.93;;;0.70;;
30247;SDS011;17063;50.892;4.702;2023-04-12T00:23:20;2.27;;;1.00;;
30247;SDS011;17063;50.892;4.702;2023-04-12T00:25:47;2.33;;;1.00;;
30247;SDS011;17063;50.892;4.702;2023-04-12T00:28:14;4.67;;;1.07;;
30247;SDS011;17063;50.892;4.702;2023-04-12T00:30:42;2.63;;;0.80;;
30247;SDS011;17063;50.892;4.702;2023-04-12T00:33:09;1.80;;;0.70;;
30247;SDS011;17063;50.892;4.702;2023-04-12T00:35:36;1.30;;;0.80;;
30247;SDS011;17063;50.892;4.702;2023-04-12T00:38:03;1.27;;;0.73;;
30247;SDS011;17063;50.892;4.702;2023-04-12T00:40:31;4.70;;;0.80;;
30247;SDS011;17063;50.892;4.702;2023-04-12T00:42:59;1.70;;;0.77;;
30247;SDS011;17063;50.892;4.702;2023-04-12T00:45:26;4.67;;;1.10;;
30247;SDS011;17063;50.892;4.702;2023-04-12T00:47:53;0.60;;;0.60;;
30247;SDS011;17063;50.892;4.702;2023-04-12T00:50:21;6.17;;;1.30;;
30247;SDS011;17063;50.892;4.702;2023-04-12T00:52:49;2.67;;;0.90;;
30247;SDS011;17063;50.892;4.702;2023-04-12T00:55:17;2.10;;;0.87;;
30247;SDS011;17063;50.892;4.702;2023-04-12T00:57:44;6.63;;;0.90;;
30247;SDS011;17063;50.892;4.702;2023-04-12T01:00:12;3.83;;;0.90;;
30247;SDS011;17063;50.892;4.702;2023-04-12T01:02:39;3.70;;;0.87;;
30247;SDS011;17063;50.892;4.702;2023-04-12T01:05:08;2.60;;;0.93;;
30247;SDS011;17063;50.892;4.702;2023-04-12T01:10:28;2.40;;;1.10;;
30247;SDS011;17063;50.892;4.702;2023-04-12T01:15:33;1.87;;;0.87;;
30247;SDS011;17063;50.892;4.702;2023-04-12T01:18:07;1.93;;;0.70;;
30247;SDS011;17063;50.892;4.702;2023-04-12T01:20:49;1.00;;;0.90;;
30247;SDS011;17063;50.892;4.702;2023-04-12T01:26:13;3.97;;;0.87;;
30247;SDS011;17063;50.892;4.702;2023-04-12T01:28:53;2.23;;;1.00;;
30247;SDS011;17063;50.892;4.702;2023-04-12T01:31:21;1.70;;;1.00;;
30247;SDS011;17063;50.892;4.702;2023-04-12T01:33:52;3.17;;;1.10;;
30247;SDS011;17063;50.892;4.702;2023-04-12T01:36:20;2.63;;;1.17;;
30247;SDS011;17063;50.892;4.702;2023-04-12T01:38:48;3.67;;;0.67;;
30247;SDS011;17063;50.892;4.702;2023-04-12T01:41:15;3.30;;;0.97;;
30247;SDS011;17063;50.892;4.702;2023-04-12T01:43:43;1.33;;;0.80;;
30247;SDS011;17063;50.892;4.702;2023-04-12T01:46:12;0.80;;;0.80;;
30247;SDS011;17063;50.892;4.702;2023-04-12T01:48:44;0.70;;;0.70;;
30247;SDS011;17063;50.892;4.702;2023-04-12T01:51:22;2.47;;;0.80;;
30247;SDS011;17063;50.892;4.702;2023-04-12T01:54:02;1.43;;;1.00;;
30247;SDS011;17063;50.892;4.702;2023-04-12T01:56:37;1.90;;;0.80;;
30247;SDS011;17063;50.892;4.702;2023-04-12T01:59:06;2.57;;;0.70;;
30247;SDS011;17063;50.892;4.702;2023-04-12T02:01:33;2.60;;;0.93;;
30247;SDS011;17063;50.892;4.702;2023-04-12T02:04:00;0.80;;;0.80;;
30247;SDS011;17063;50.892;4.702;2023-04-12T02:06:30;1.63;;;0.70;;
30247;SDS011;17063;50.892;4.702;2023-04-12T02:08:57;2.80;;;1.27;;
30247;SDS011;17063;50.892;4.702;2023-04-12T02:11:26;4.37;;;1.10;;
30247;SDS011;17063;50.892;4.702;2023-04-12T02:13:53;1.07;;;0.67;;
30247;SDS011;17063;50.892;4.702;2023-04-12T02:16:20;2.00;;;1.20;;
30247;SDS011;17063;50.892;4.702;2023-04-12T02:18:48;1.80;;;0.80;;
30247;SDS011;17063;50.892;4.702;2023-04-12T02:21:16;1.00;;;0.80;;
30247;SDS011;17063;50.892;4.702;2023-04-12T02:23:44;2.03;;;0.83;;
30247;SDS011;17063;50.892;4.702;2023-04-12T02:26:10;2.33;;;0.90;;
30247;SDS011;17063;50.892;4.702;2023-04-12T02:28:37;6.40;;;1.10;;
30247;SDS011;17063;50.892;4.702;2023-04-12T02:31:08;0.80;;;0.60;;
30247;SDS011;17063;50.892;4.702;2023-04-12T02:33:35;2.20;;;0.70;;
30247;SDS011;17063;50.892;4.702;2023-04-12T02:36:08;1.43;;;0.67;;
30247;SDS011;17063;50.892;4.702;2023-04-12T02:38:38;4.10;;;0.80;;
30247;SDS011;17063;50.892;4.702;2023-04-12T02:41:06;0.80;;;0.80;;
30247;SDS011;17063;50.892;4.702;2023-04-12T02:43:34;1.47;;;0.90;;
30247;SDS011;17063;50.892;4.702;2023-04-12T02:46:06;6.60;;;0.93;;
30247;SDS011;17063;50.892;4.702;2023-04-12T02:48:45;1.07;;;0.93;;
30247;SDS011;17063;50.892;4.702;2023-04-12T02:51:13;1.53;;;0.77;;
30247;SDS011;17063;50.892;4.702;2023-04-12T02:53:41;3.03;;;0.80;;
30247;SDS011;17063;50.892;4.702;2023-04-12T02:56:15;1.97;;;0.90;;
30247;SDS011;17063;50.892;4.702;2023-04-12T02:58:48;3.50;;;1.10;;
30247;SDS011;17063;50.892;4.702;2023-04-12T03:01:28;0.70;;;0.50;;
30247;SDS011;17063;50.892;4.702;2023-04-12T03:04:13;1.20;;;0.70;;
30247;SDS011;17063;50.892;4.702;2023-04-12T03:06:46;1.03;;;0.73;;
30247;SDS011;17063;50.892;4.702;2023-04-12T03:09:32;1.73;;;1.43;;
30247;SDS011;17063;50.892;4.702;2023-04-12T03:12:00;2.40;;;0.70;;
30247;SDS011;17063;50.892;4.702;2023-04-12T03:14:31;2.10;;;0.93;;
30247;SDS011;17063;50.892;4.702;2023-04-12T03:16:58;2.03;;;0.93;;
30247;SDS011;17063;50.892;4.702;2023-04-12T03:19:25;1.67;;;0.70;;
30247;SDS011;17063;50.892;4.702;2023-04-12T03:21:54;1.33;;;0.80;;
30247;SDS011;17063;50.892;4.702;2023-04-12T03:24:21;1.90;;;0.90;;
30247;SDS011;17063;50.892;4.702;2023-04-12T03:26:50;4.47;;;1.10;;
30247;SDS011;17063;50.892;4.702;2023-04-12T03:29:21;0.83;;;0.70;;
30247;SDS011;17063;50.892;4.702;2023-04-12T03:31:51;1.47;;;0.80;;
30247;SDS011;17063;50.892;4.702;2023-04-12T03:34:18;4.10;;;0.87;;
30247;SDS011;17063;50.892;4.702;2023-04-12T03:36:50;1.30;;;0.90;;
30247;SDS011;17063;50.892;4.702;2023-04-12T03:39:23;1.70;;;0.90;;
30247;SDS011;17063;50.892;4.702;2023-04-12T03:41:50;1.10;;;0.63;;
30247;SDS011;17063;50.892;4.702;2023-04-12T03:44:21;1.33;;;0.97;;
30247;SDS011;17063;50.892;4.702;2023-04-12T03:46:54;1.37;;;0.80;;
30247;SDS011;17063;50.892;4.702;2023-04-12T03:49:22;3.30;;;1.00;;
30247;SDS011;17063;50.892;4.702;2023-04-12T03:51:50;2.10;;;0.77;;
30247;SDS011;17063;50.892;4.702;2023-04-12T03:54:18;3.27;;;0.70;;
30247;SDS011;17063;50.892;4.702;2023-04-12T03:56:54;3.70;;;0.83;;
30247;SDS011;17063;50.892;4.702;2023-04-12T03:59:43;1.40;;;0.60;;
30247;SDS011;17063;50.892;4.702;2023-04-12T04:02:10;4.83;;;0.93;;
30247;SDS011;17063;50.892;4.702;2023-04-12T04:04:43;1.47;;;0.60;;
30247;SDS011;17063;50.892;4.702;2023-04-12T04:07:14;2.37;;;0.70;;
30247;SDS011;17063;50.892;4.702;2023-04-12T04:09:43;0.50;;;0.50;;
30247;SDS011;17063;50.892;4.702;2023-04-12T04:12:10;1.70;;;0.80;;
30247;SDS011;17063;50.892;4.702;2023-04-12T04:14:42;2.47;;;0.73;;
30247;SDS011;17063;50.892;4.702;2023-04-12T04:17:15;0.80;;;0.50;;
30247;SDS011;17063;50.892;4.702;2023-04-12T04:19:42;4.33;;;1.00;;
30247;SDS011;17063;50.892;4.702;2023-04-12T04:22:09;1.73;;;0.60;;
30247;SDS011;17063;50.892;4.702;2023-04-12T04:24:37;2.53;;;0.77;;
30247;SDS011;17063;50.892;4.702;2023-04-12T04:27:06;4.70;;;0.63;;
30247;SDS011;17063;50.892;4.702;2023-04-12T04:29:33;1.30;;;0.77;;
30247;SDS011;17063;50.892;4.702;2023-04-12T04:32:02;0.93;;;0.63;;
30247;SDS011;17063;50.892;4.702;2023-04-12T04:34:29;2.70;;;0.53;;
30247;SDS011;17063;50.892;4.702;2023-04-12T04:37:07;1.20;;;0.70;;
30247;SDS011;17063;50.892;4.702;2023-04-12T04:39:35;2.13;;;0.60;;
30247;SDS011;17063;50.892;4.702;2023-04-12T04:42:02;0.57;;;0.50;;
30247;SDS011;17063;50.892;4.702;2023-04-12T04:44:37;1.50;;;0.70;;
30247;SDS011;17063;50.892;4.702;2023-04-12T04:47:08;3.07;;;0.73;;
30247;SDS011;17063;50.892;4.702;2023-04-12T04:49:36;4.33;;;0.80;;
30247;SDS011;17063;50.892;4.702;2023-04-12T04:52:18;1.97;;;0.83;;
30247;SDS011;17063;50.892;4.702;2023-04-12T04:54:47;1.27;;;0.70;;
30247;SDS011;17063;50.892;4.702;2023-04-12T04:57:14;1.40;;;0.63;;
30247;SDS011;17063;50.892;4.702;2023-04-12T04:59:41;1.17;;;0.60;;
30247;SDS011;17063;50.892;4.702;2023-04-12T05:02:14;1.57;;;0.80;;
30247;SDS011;17063;50.892;4.702;2023-04-12T05:04:43;1.10;;;0.63;;
30247;SDS011;17063;50.892;4.702;2023-04-12T05:07:13;1.90;;;0.70;;
30247;SDS011;17063;50.892;4.702;2023-04-12T05:09:43;1.37;;;0.70;;
30247;SDS011;17063;50.892;4.702;2023-04-12T05:12:10;3.70;;;0.70;;
30247;SDS011;17063;50.892;4.702;2023-04-12T05:14:40;3.07;;;0.60;;
30247;SDS011;17063;50.892;4.702;2023-04-12T05:17:16;0.60;;;0.60;;
30247;SDS011;17063;50.892;4.702;2023-04-12T05:19:43;0.40;;;0.40;;
30247;SDS011;17063;50.892;4.702;2023-04-12T05:22:10;1.17;;;0.70;;
30247;SDS011;17063;50.892;4.702;2023-04-12T05:24:39;1.30;;;1.13;;
30247;SDS011;17063;50.892;4.702;2023-04-12T05:27:06;1.23;;;0.60;;
30247;SDS011;17063;50.892;4.702;2023-04-12T05:29:34;2.57;;;0.80;;
30247;SDS011;17063;50.892;4.702;2023-04-12T05:32:04;0.50;;;0.50;;
30247;SDS011;17063;50.892;4.702;2023-04-12T05:34:31;1.83;;;0.50;;
30247;SDS011;17063;50.892;4.702;2023-04-12T05:36:58;0.67;;;0.67;;
30247;SDS011;17063;50.892;4.702;2023-04-12T05:39:30;0.67;;;0.67;;
30247;SDS011;17063;50.892;4.702;2023-04-12T05:41:57;1.77;;;0.80;;
30247;SDS011;17063;50.892;4.702;2023-04-12T05:44:25;5.90;;;0.97;;
30247;SDS011;17063;50.892;4.702;2023-04-12T05:46:51;3.93;;;0.70;;
30247;SDS011;17063;50.892;4.702;2023-04-12T05:49:18;2.70;;;0.70;;
30247;SDS011;17063;50.892;4.702;2023-04-12T05:51:45;1.10;;;0.50;;
30247;SDS011;17063;50.892;4.702;2023-04-12T05:54:18;3.30;;;0.77;;
30247;SDS011;17063;50.892;4.702;2023-04-12T05:56:50;2.63;;;0.80;;
30247;SDS011;17063;50.892;4.702;2023-04-12T05:59:20;1.33;;;0.83;;
30247;SDS011;17063;50.892;4.702;2023-04-12T06:01:47;4.40;;;1.30;;
30247;SDS011;17063;50.892;4.702;2023-04-12T06:04:16;6.47;;;1.20;;
30247;SDS011;17063;50.892;4.702;2023-04-12T06:06:44;2.20;;;1.00;;
30247;SDS011;17063;50.892;4.702;2023-04-12T06:09:10;2.20;;;0.80;;
30247;SDS011;17063;50.892;4.702;2023-04-12T06:11:37;2.23;;;1.20;;
30247;SDS011;17063;50.892;4.702;2023-04-12T06:14:05;2.77;;;1.07;;
30247;SDS011;17063;50.892;4.702;2023-04-12T06:16:33;4.20;;;1.40;;
30247;SDS011;17063;50.892;4.702;2023-04-12T06:19:00;5.23;;;1.20;;
30247;SDS011;17063;50.892;4.702;2023-04-12T06:21:27;7.40;;;1.67;;
30247;SDS011;17063;50.892;4.702;2023-04-12T06:23:53;6.07;;;1.17;;
30247;SDS011;17063;50.892;4.702;2023-04-12T06:26:20;3.70;;;1.10;;
30247;SDS011;17063;50.892;4.702;2023-04-12T06:28:47;4.50;;;1.40;;
30247;SDS011;17063;50.892;4.702;2023-04-12T06:31:15;2.83;;;1.07;;
30247;SDS011;17063;50.892;4.702;2023-04-12T06:33:42;4.87;;;1.20;;
30247;SDS011;17063;50.892;4.702;2023-04-12T06:36:10;4.03;;;1.43;;
30247;SDS011;17063;50.892;4.702;2023-04-12T06:38:38;7.03;;;1.80;;
30247;SDS011;17063;50.892;4.702;2023-04-12T06:41:05;7.00;;;1.80;;
30247;SDS011;17063;50.892;4.702;2023-04-12T06:43:32;3.70;;;1.37;;
30247;SDS011;17063;50.892;4.702;2023-04-12T06:45:59;6.57;;;1.67;;
30247;SDS011;17063;50.892;4.702;2023-04-12T06:48:28;7.80;;;1.73;;
30247;SDS011;17063;50.892;4.702;2023-04-12T06:50:55;3.10;;;1.03;;
30247;SDS011;17063;50.892;4.702;2023-04-12T06:53:22;7.17;;;1.50;;
30247;SDS011;17063;50.892;4.702;2023-04-12T06:56:02;6.63;;;1.57;;
30247;SDS011;17063;50.892;4.702;2023-04-12T06:58:44;7.03;;;1.70;;
30247;SDS011;17063;50.892;4.702;2023-04-12T07:01:11;4.87;;;1.30;;
30247;SDS011;17063;50.892;4.702;2023-04-12T07:03:41;3.83;;;1.60;;
30247;SDS011;17063;50.892;4.702;2023-04-12T07:06:08;4.50;;;1.40;;
30247;SDS011;17063;50.892;4.702;2023-04-12T07:08:50;6.33;;;1.37;;
30247;SDS011;17063;50.892;4.702;2023-04-12T07:11:17;8.60;;;1.73;;
30247;SDS011;17063;50.892;4.702;2023-04-12T07:13:47;5.90;;;1.27;;
30247;SDS011;17063;50.892;4.702;2023-04-12T07:16:15;4.30;;;1.50;;
30247;SDS011;17063;50.892;4.702;2023-04-12T07:18:42;4.80;;;1.20;;
30247;SDS011;17063;50.892;4.702;2023-04-12T07:21:09;3.53;;;1.30;;
30247;SDS011;17063;50.892;4.702;2023-04-12T07:23:40;6.90;;;1.40;;
30247;SDS011;17063;50.892;4.702;2023-04-12T07:26:06;7.67;;;1.27;;
30247;SDS011;17063;50.892;4.702;2023-04-12T07:28:33;7.90;;;1.70;;
30247;SDS011;17063;50.892;4.702;2023-04-12T07:31:05;5.90;;;1.53;;
30247;SDS011;17063;50.892;4.702;2023-04-12T07:33:32;4.10;;;1.07;;
30247;SDS011;17063;50.892;4.702;2023-04-12T07:36:02;7.13;;;1.47;;
30247;SDS011;17063;50.892;4.702;2023-04-12T07:38:29;6.87;;;1.47;;
30247;SDS011;17063;50.892;4.702;2023-04-12T07:40:56;5.67;;;1.40;;
30247;SDS011;17063;50.892;4.702;2023-04-12T07:43:23;5.23;;;1.20;;
30247;SDS011;17063;50.892;4.702;2023-04-12T07:45:50;7.70;;;1.93;;
30247;SDS011;17063;50.892;4.702;2023-04-12T07:48:20;4.83;;;1.30;;
30247;SDS011;17063;50.892;4.702;2023-04-12T07:50:47;4.23;;;1.53;;
30247;SDS011;17063;50.892;4.702;2023-04-12T07:55:48;5.93;;;1.40;;
30247;SDS011;17063;50.892;4.702;2023-04-12T07:58:16;10.67;;;1.70;;
30247;SDS011;17063;50.892;4.702;2023-04-12T08:00:44;5.07;;;1.13;;
30247;SDS011;17063;50.892;4.702;2023-04-12T08:03:12;7.33;;;2.87;;
30247;SDS011;17063;50.892;4.702;2023-04-12T08:05:40;5.13;;;1.70;;
30247;SDS011;17063;50.892;4.702;2023-04-12T08:08:07;7.27;;;1.87;;
30247;SDS011;17063;50.892;4.702;2023-04-12T08:10:37;6.80;;;1.43;;
30247;SDS011;17063;50.892;4.702;2023-04-12T08:13:05;6.87;;;1.47;;
30247;SDS011;17063;50.892;4.702;2023-04-12T08:15:32;9.33;;;1.77;;
30247;SDS011;17063;50.892;4.702;2023-04-12T08:17:59;6.07;;;1.53;;
30247;SDS011;17063;50.892;4.702;2023-04-12T08:20:30;5.97;;;1.40;;
30247;SDS011;17063;50.892;4.702;2023-04-12T08:22:58;6.10;;;1.53;;
30247;SDS011;17063;50.892;4.702;2023-04-12T08:25:25;5.57;;;1.87;;
30247;SDS011;17063;50.892;4.702;2023-04-12T08:27:52;5.43;;;1.37;;
30247;SDS011;17063;50.892;4.702;2023-04-12T08:30:20;10.77;;;1.80;;
30247;SDS011;17063;50.892;4.702;2023-04-12T08:32:52;7.70;;;1.70;;
30247;SDS011;17063;50.892;4.702;2023-04-12T08:35:20;9.23;;;1.87;;
30247;SDS011;17063;50.892;4.702;2023-04-12T08:37:48;7.57;;;1.30;;
30247;SDS011;17063;50.892;4.702;2023-04-12T08:40:18;9.40;;;1.60;;
30247;SDS011;17063;50.892;4.702;2023-04-12T08:42:51;10.03;;;1.90;;
30247;SDS011;17063;50.892;4.702;2023-04-12T08:45:19;7.57;;;1.80;;
30247;SDS011;17063;50.892;4.702;2023-04-12T08:47:49;6.70;;;1.70;;
30247;SDS011;17063;50.892;4.702;2023-04-12T08:50:19;6.43;;;1.57;;
30247;SDS011;17063;50.892;4.702;2023-04-12T08:52:46;9.53;;;1.67;;
30247;SDS011;17063;50.892;4.702;2023-04-12T08:55:14;7.53;;;2.27;;
30247;SDS011;17063;50.892;4.702;2023-04-12T08:57:42;6.93;;;1.83;;
30247;SDS011;17063;50.892;4.702;2023-04-12T09:00:09;8.57;;;2.00;;
30247;SDS011;17063;50.892;4.702;2023-04-12T09:02:38;17.07;;;2.83;;
30247;SDS011;17063;50.892;4.702;2023-04-12T09:05:08;12.37;;;2.40;;
30247;SDS011;17063;50.892;4.702;2023-04-12T09:07:35;15.80;;;2.37;;
30247;SDS011;17063;50.892;4.702;2023-04-12T09:10:02;8.27;;;1.93;;
30247;SDS011;17063;50.892;4.702;2023-04-12T09:12:30;8.57;;;2.40;;
30247;SDS011;17063;50.892;4.702;2023-04-12T09:17:34;10.57;;;1.67;;
30247;SDS011;17063;50.892;4.702;2023-04-12T09:20:02;14.90;;;2.37;;
30247;SDS011;17063;50.892;4.702;2023-04-12T09:22:35;11.67;;;2.70;;
30247;SDS011;17063;50.892;4.702;2023-04-12T09:25:04;19.43;;;3.10;;
30247;SDS011;17063;50.892;4.702;2023-04-12T09:27:44;11.60;;;2.40;;
30247;SDS011;17063;50.892;4.702;2023-04-12T09:30:12;12.77;;;2.03;;
30247;SDS011;17063;50.892;4.702;2023-04-12T09:32:40;16.90;;;2.70;;
30247;SDS011;17063;50.892;4.702;2023-04-12T09:35:07;15.27;;;3.13;;
30247;SDS011;17063;50.892;4.702;2023-04-12T09:37:41;12.03;;;2.33;;
30247;SDS011;17063;50.892;4.702;2023-04-12T09:40:08;15.47;;;2.80;;
30247;SDS011;17063;50.892;4.702;2023-04-12T09:42:49;13.90;;;3.80;;
30247;SDS011;17063;50.892;4.702;2023-04-12T09:45:18;17.60;;;2.73;;
30247;SDS011;17063;50.892;4.702;2023-04-12T09:47:50;12.70;;;2.67;;
30247;SDS011;17063;50.892;4.702;2023-04-12T09:50:20;11.57;;;2.40;;
30247;SDS011;17063;50.892;4.702;2023-04-12T09:52:54;18.43;;;2.30;;
30247;SDS011;17063;50.892;4.702;2023-04-12T09:55:23;15.20;;;2.30;;
30247;SDS011;17063;50.892;4.702;2023-04-12T09:57:52;12.67;;;1.77;;
30247;SDS011;17063;50.892;4.702;2023-04-12T10:00:23;12.37;;;2.23;;
30247;SDS011;17063;50.892;4.702;2023-04-12T10:02:53;10.07;;;2.00;;
30247;SDS011;17063;50.892;4.702;2023-04-12T10:05:23;6.03;;;1.80;;
30247;SDS011;17063;50.892;4.702;2023-04-12T10:07:55;7.57;;;1.67;;
30247;SDS011;17063;50.892;4.702;2023-04-12T10:10:26;15.87;;;3.50;;
30247;SDS011;17063;50.892;4.702;2023-04-12T10:12:53;8.10;;;1.80;;
30247;SDS011;17063;50.892;4.702;2023-04-12T10:15:21;16.53;;;2.40;;
30247;SDS011;17063;50.892;4.702;2023-04-12T10:17:54;10.93;;;2.10;;
30247;SDS011;17063;50.892;4.702;2023-04-12T10:20:23;8.60;;;1.90;;
30247;SDS011;17063;50.892;4.702;2023-04-12T10:22:54;5.13;;;1.73;;
30247;SDS011;17063;50.892;4.702;2023-04-12T10:25:24;12.23;;;2.20;;
30247;SDS011;17063;50.892;4.702;2023-04-12T10:27:52;7.57;;;2.30;;
30247;SDS011;17063;50.892;4.702;2023-04-12T10:30:26;7.93;;;1.90;;
30247;SDS011;17063;50.892;4.702;2023-04-12T10:38:18;12.63;;;2.53;;
30247;SDS011;17063;50.892;4.702;2023-04-12T10:43:34;5.50;;;1.80;;
30247;SDS011;17063;50.892;4.702;2023-04-12T10:46:01;9.60;;;2.17;;
30247;SDS011;17063;50.892;4.702;2023-04-12T10:53:44;11.10;;;1.90;;
30247;SDS011;17063;50.892;4.702;2023-04-12T10:59:00;11.27;;;2.23;;
30247;SDS011;17063;50.892;4.702;2023-04-12T11:01:33;10.20;;;1.83;;
30247;SDS011;17063;50.892;4.702;2023-04-12T11:04:08;10.63;;;2.00;;
30247;SDS011;17063;50.892;4.702;2023-04-12T11:06:40;7.97;;;2.00;;
30247;SDS011;17063;50.892;4.702;2023-04-12T11:14:35;7.90;;;2.60;;
30247;SDS011;17063;50.892;4.702;2023-04-12T11:19:31;10.93;;;2.40;;
30247;SDS011;17063;50.892;4.702;2023-04-12T11:21:59;11.57;;;3.03;;
30247;SDS011;17063;50.892;4.702;2023-04-12T11:24:26;8.87;;;2.60;;
30247;SDS011;17063;50.892;4.702;2023-04-12T11:26:53;8.00;;;2.20;;
30247;SDS011;17063;50.892;4.702;2023-04-12T11:29:25;10.50;;;2.37;;
30247;SDS011;17063;50.892;4.702;2023-04-12T11:31:52;8.80;;;1.90;;
30247;SDS011;17063;50.892;4.702;2023-04-12T11:34:21;9.03;;;1.80;;
30247;SDS011;17063;50.892;4.702;2023-04-12T11:36:51;6.10;;;1.67;;
30247;SDS011;17063;50.892;4.702;2023-04-12T11:39:18;13.03;;;3.00;;
30247;SDS011;17063;50.892;4.702;2023-04-12T11:41:47;6.60;;;1.80;;
30247;SDS011;17063;50.892;4.702;2023-04-12T11:44:15;8.53;;;2.30;;
30247;SDS011;17063;50.892;4.702;2023-04-12T11:46:44;8.97;;;1.70;;
30247;SDS011;17063;50.892;4.702;2023-04-12T11:49:15;7.63;;;2.00;;
30247;SDS011;17063;50.892;4.702;2023-04-12T11:51:43;7.67;;;1.73;;
30247;SDS011;17063;50.892;4.702;2023-04-12T11:54:15;13.93;;;2.30;;
30247;SDS011;17063;50.892;4.702;2023-04-12T11:56:42;7.77;;;1.43;;
30247;SDS011;17063;50.892;4.702;2023-04-12T11:59:09;8.03;;;2.00;;
30247;SDS011;17063;50.892;4.702;2023-04-12T12:01:36;7.53;;;1.47;;
30247;SDS011;17063;50.892;4.702;2023-04-12T12:04:03;7.77;;;1.70;;
30247;SDS011;17063;50.892;4.702;2023-04-12T12:06:32;7.97;;;1.70;;
30247;SDS011;17063;50.892;4.702;2023-04-12T12:09:00;5.43;;;1.73;;
30247;SDS011;17063;50.892;4.702;2023-04-12T12:11:28;9.93;;;2.00;;
30247;SDS011;17063;50.892;4.702;2023-04-12T12:13:56;3.80;;;1.23;;
30247;SDS011;17063;50.892;4.702;2023-04-12T12:16:26;6.63;;;1.83;;
30247;SDS011;17063;50.892;4.702;2023-04-12T12:18:55;9.83;;;1.90;;
30247;SDS011;17063;50.892;4.702;2023-04-12T12:21:22;6.67;;;1.47;;
30247;SDS011;17063;50.892;4.702;2023-04-12T12:23:49;5.57;;;1.63;;
30247;SDS011;17063;50.892;4.702;2023-04-12T12:26:19;1.23;;;0.90;;
30247;SDS011;17063;50.892;4.702;2023-04-12T12:28:50;3.27;;;0.80;;
30247;SDS011;17063;50.892;4.702;2023-04-12T12:31:20;2.10;;;0.70;;
30247;SDS011;17063;50.892;4.702;2023-04-12T12:33:52;0.50;;;0.40;;
30247;SDS011;17063;50.892;4.702;2023-04-12T12:36:19;2.70;;;1.00;;
30247;SDS011;17063;50.892;4.702;2023-04-12T12:38:53;1.43;;;0.80;;
30247;SDS011;17063;50.892;4.702;2023-04-12T12:41:21;2.10;;;0.70;;
30247;SDS011;17063;50.892;4.702;2023-04-12T12:43:50;0.80;;;0.50;;
30247;SDS011;17063;50.892;4.702;2023-04-12T12:46:18;5.80;;;1.77;;
30247;SDS011;17063;50.892;4.702;2023-04-12T12:48:46;1.63;;;1.00;;
30247;SDS011;17063;50.892;4.702;2023-04-12T12:51:14;2.47;;;0.90;;
30247;SDS011;17063;50.892;4.702;2023-04-12T12:53:45;5.30;;;0.97;;
30247;SDS011;17063;50.892;4.702;2023-04-12T12:56:12;7.30;;;0.90;;
30247;SDS011;17063;50.892;4.702;2023-04-12T12:58:40;2.93;;;0.63;;
30247;SDS011;17063;50.892;4.702;2023-04-12T13:01:07;3.70;;;0.87;;
30247;SDS011;17063;50.892;4.702;2023-04-12T13:03:34;3.63;;;1.00;;
30247;SDS011;17063;50.892;4.702;2023-04-12T13:06:01;5.93;;;0.97;;
30247;SDS011;17063;50.892;4.702;2023-04-12T13:08:28;2.03;;;1.00;;
30247;SDS011;17063;50.892;4.702;2023-04-12T13:10:59;4.67;;;0.90;;
30247;SDS011;17063;50.892;4.702;2023-04-12T13:13:26;4.17;;;1.00;;
30247;SDS011;17063;50.892;4.702;2023-04-12T13:15:53;1.63;;;0.50;;
30247;SDS011;17063;50.892;4.702;2023-04-12T13:18:21;4.17;;;0.77;;
30247;SDS011;17063;50.892;4.702;2023-04-12T13:20:48;3.70;;;1.00;;
30247;SDS011;17063;50.892;4.702;2023-04-12T13:23:15;4.27;;;0.90;;
30247;SDS011;17063;50.892;4.702;2023-04-12T13:25:42;1.73;;;0.60;;
30247;SDS011;17063;50.892;4.702;2023-04-12T13:28:09;2.13;;;0.70;;
30247;SDS011;17063;50.892;4.702;2023-04-12T13:30:37;2.77;;;0.90;;
30247;SDS011;17063;50.892;4.702;2023-04-12T13:33:04;1.67;;;0.87;;
30247;SDS011;17063;50.892;4.702;2023-04-12T13:35:31;2.60;;;0.80;;
30247;SDS011;17063;50.892;4.702;2023-04-12T13:37:58;2.13;;;0.70;;
30247;SDS011;17063;50.892;4.702;2023-04-12T13:40:25;2.90;;;0.63;;
30247;SDS011;17063;50.892;4.702;2023-04-12T13:42:53;1.57;;;0.70;;
30247;SDS011;17063;50.892;4.702;2023-04-12T13:45:20;1.90;;;0.63;;
30247;SDS011;17063;50.892;4.702;2023-04-12T13:47:47;2.43;;;0.90;;
30247;SDS011;17063;50.892;4.702;2023-04-12T13:50:14;3.33;;;0.60;;
30247;SDS011;17063;50.892;4.702;2023-04-12T13:52:41;1.80;;;0.53;;
30247;SDS011;17063;50.892;4.702;2023-04-12T13:55:08;0.87;;;0.50;;
30247;SDS011;17063;50.892;4.702;2023-04-12T13:57:35;1.20;;;0.50;;
30247;SDS011;17063;50.892;4.702;2023-04-12T14:00:02;4.23;;;0.43;;
30247;SDS011;17063;50.892;4.702;2023-04-12T14:02:30;1.90;;;0.60;;
30247;SDS011;17063;50.892;4.702;2023-04-12T14:04:57;0.63;;;0.40;;
30247;SDS011;17063;50.892;4.702;2023-04-12T14:07:25;10.13;;;1.90;;
30247;SDS011;17063;50.892;4.702;2023-04-12T14:09:53;2.73;;;0.80;;
30247;SDS011;17063;50.892;4.702;2023-04-12T14:12:21;2.50;;;0.70;;
30247;SDS011;17063;50.892;4.702;2023-04-12T14:14:48;1.43;;;0.80;;
30247;SDS011;17063;50.892;4.702;2023-04-12T14:17:15;7.00;;;1.30;;
30247;SDS011;17063;50.892;4.702;2023-04-12T14:19:42;1.33;;;0.60;;
30247;SDS011;17063;50.892;4.702;2023-04-12T14:22:09;4.57;;;0.80;;
30247;SDS011;17063;50.892;4.702;2023-04-12T14:24:36;2.33;;;0.80;;
30247;SDS011;17063;50.892;4.702;2023-04-12T14:27:03;5.03;;;0.80;;
30247;SDS011;17063;50.892;4.702;2023-04-12T14:29:30;2.20;;;0.93;;
30247;SDS011;17063;50.892;4.702;2023-04-12T14:31:58;4.27;;;0.60;;
30247;SDS011;17063;50.892;4.702;2023-04-12T14:34:25;4.97;;;0.97;;
30247;SDS011;17063;50.892;4.702;2023-04-12T14:36:52;1.77;;;0.63;;
30247;SDS011;17063;50.892;4.702;2023-04-12T14:39:19;3.33;;;0.80;;
30247;SDS011;17063;50.892;4.702;2023-04-12T14:41:46;3.00;;;0.77;;
30247;SDS011;17063;50.892;4.702;2023-04-12T14:44:13;1.93;;;0.57;;
30247;SDS011;17063;50.892;4.702;2023-04-12T14:46:43;1.03;;;0.47;;
30247;SDS011;17063;50.892;4.702;2023-04-12T14:49:10;2.43;;;1.13;;
30247;SDS011;17063;50.892;4.702;2023-04-12T14:51:37;2.03;;;0.70;;
30247;SDS011;17063;50.892;4.702;2023-04-12T14:54:04;2.83;;;0.60;;
30247;SDS011;17063;50.892;4.702;2023-04-12T14:56:31;0.80;;;0.47;;
30247;SDS011;17063;50.892;4.702;2023-04-12T14:59:04;1.53;;;0.60;;
30247;SDS011;17063;50.892;4.702;2023-04-12T15:01:33;1.20;;;0.70;;
30247;SDS011;17063;50.892;4.702;2023-04-12T15:04:00;2.30;;;0.80;;
30247;SDS011;17063;50.892;4.702;2023-04-12T15:06:29;1.93;;;0.60;;
30247;SDS011;17063;50.892;4.702;2023-04-12T15:08:59;1.00;;;0.57;;
30247;SDS011;17063;50.892;4.702;2023-04-12T15:11:29;2.97;;;0.80;;
30247;SDS011;17063;50.892;4.702;2023-04-12T15:14:01;3.27;;;0.80;;
30247;SDS011;17063;50.892;4.702;2023-04-12T15:16:29;2.83;;;0.80;;
30247;SDS011;17063;50.892;4.702;2023-04-12T15:18:56;4.13;;;0.77;;
30247;SDS011;17063;50.892;4.702;2023-04-12T15:21:27;1.70;;;0.70;;
30247;SDS011;17063;50.892;4.702;2023-04-12T15:23:55;4.43;;;1.10;;
30247;SDS011;17063;50.892;4.702;2023-04-12T15:26:23;4.23;;;0.90;;
30247;SDS011;17063;50.892;4.702;2023-04-12T15:28:50;4.00;;;1.03;;
30247;SDS011;17063;50.892;4.702;2023-04-12T15:31:17;4.93;;;1.10;;
30247;SDS011;17063;50.892;4.702;2023-04-12T15:33:44;4.43;;;1.37;;